Time;durP1;ratioP1;P1;durP2;ratioP2;P2;SDS_P1;SDS_P2;PMS_P1;PMS_P2;Temp;Humidity;BMP_temperature;BMP_pressure;BME280_temperature;BME280_humidity;BME280_pressure;Samples;Min_cycle;Max_cycle;Signal;HPM_P1;HPM_P2
2022/08/04 00:01:53;;;;;;;9.18;3.70;;;24.00;99.90;;;;;;5049450;28;20416;-54
2022/08/04 00:04:59;;;;;;;8.53;3.70;;;24.00;99.90;;;;;;5048829;28;20377;-52
2022/08/04 00:07:40;;;;;;;10.82;3.72;;;24.00;99.90;;;;;;5031185;28;20747;-52
2022/08/04 00:10:07;;;;;;;7.37;3.63;;;24.00;99.90;;;;;;5049616;28;20774;-55
2022/08/04 00:12:36;;;;;;;8.02;3.90;;;24.00;99.90;;;;;;5049526;28;20409;-52
2022/08/04 00:15:04;;;;;;;7.27;3.70;;;24.00;99.90;;;;;;5049606;28;20405;-52
2022/08/04 00:17:35;;;;;;;8.45;3.92;;;24.00;99.90;;;;;;5048983;28;20786;-52
2022/08/04 00:20:03;;;;;;;9.02;4.00;;;23.90;99.90;;;;;;5049956;28;20377;-53
2022/08/04 00:22:31;;;;;;;7.80;3.65;;;23.90;99.90;;;;;;5048587;28;20389;-52
2022/08/04 00:25:00;;;;;;;9.10;4.20;;;23.80;99.90;;;;;;5049026;28;20723;-53
2022/08/04 00:27:28;;;;;;;9.68;4.30;;;23.80;99.90;;;;;;5048790;28;20409;-53
2022/08/04 00:29:55;;;;;;;10.48;4.25;;;23.80;99.90;;;;;;5049444;28;20377;-52
2022/08/04 00:32:21;;;;;;;7.57;4.30;;;23.90;99.90;;;;;;5045990;28;20389;-52
2022/08/04 00:34:47;;;;;;;9.15;4.95;;;23.90;99.90;;;;;;5053142;28;20431;-52
2022/08/04 00:37:14;;;;;;;9.20;4.20;;;23.90;99.90;;;;;;5052413;28;20416;-53
2022/08/04 00:39:40;;;;;;;8.57;4.60;;;23.80;99.90;;;;;;5052636;28;20835;-52
2022/08/04 00:42:52;;;;;;;11.10;4.30;;;23.70;99.90;;;;;;5052737;28;20455;-52
2022/08/04 00:45:30;;;;;;;10.45;4.30;;;23.70;99.90;;;;;;5035086;28;20484;-52
2022/08/04 00:48:16;;;;;;;8.70;4.60;;;23.60;99.90;;;;;;5043584;28;20385;-52
2022/08/04 00:50:44;;;;;;;8.52;4.60;;;23.50;99.90;;;;;;5053525;28;20377;-52
2022/08/04 00:53:27;;;;;;;9.05;4.70;;;23.60;99.90;;;;;;5052843;28;20409;-52
2022/08/04 00:56:03;;;;;;;9.00;4.88;;;23.60;99.90;;;;;;5052759;28;20409;-51
2022/08/04 00:58:49;;;;;;;9.88;4.40;;;23.60;99.90;;;;;;5052200;28;20469;-51
2022/08/04 01:01:45;;;;;;;9.88;4.75;;;23.60;99.90;;;;;;5052600;28;20461;-51
2022/08/04 01:04:32;;;;;;;10.20;4.90;;;23.60;99.90;;;;;;5052659;28;20396;-52
2022/08/04 01:07:30;;;;;;;9.55;4.60;;;23.50;99.90;;;;;;5052859;28;20469;-51
2022/08/04 01:10:36;;;;;;;9.90;5.10;;;23.50;99.90;;;;;;5008180;28;20403;-52
2022/08/04 01:13:28;;;;;;;9.90;4.88;;;23.40;99.90;;;;;;5012939;28;20415;-53
2022/08/04 01:16:02;;;;;;;9.60;4.60;;;23.30;99.90;;;;;;5048441;28;20735;-53
2022/08/04 01:18:51;;;;;;;9.57;5.00;;;23.20;99.90;;;;;;5051442;28;20432;-51
2022/08/04 01:21:29;;;;;;;9.70;4.80;;;23.10;99.90;;;;;;5051321;28;20393;-51
2022/08/04 01:24:13;;;;;;;9.60;4.70;;;23.00;99.90;;;;;;5052340;28;20381;-51
2022/08/04 01:26:48;;;;;;;13.32;5.20;;;23.00;99.90;;;;;;5050958;28;20740;-52
2022/08/04 01:29:15;;;;;;;9.63;5.05;;;23.00;99.90;;;;;;5052196;28;20436;-60
2022/08/04 01:31:59;;;;;;;9.77;4.50;;;23.20;99.90;;;;;;5052068;28;20399;-52
2022/08/04 01:34:28;;;;;;;9.25;4.53;;;22.90;99.90;;;;;;5050946;28;20413;-51
2022/08/04 01:37:26;;;;;;;8.90;4.60;;;22.80;1.00;;;;;;5051947;28;20385;-51
2022/08/04 01:40:07;;;;;;;10.48;5.28;;;22.80;1.00;;;;;;5007257;28;20393;-53
2022/08/04 01:42:35;;;;;;;11.13;5.40;;;22.80;1.00;;;;;;5050243;28;20740;-54
2022/08/04 01:45:11;;;;;;;9.65;4.88;;;22.80;1.00;;;;;;5051183;28;20835;-51
2022/08/04 01:47:42;;;;;;;15.13;5.30;;;22.70;1.00;;;;;;5031306;28;20391;-57
2022/08/04 01:50:12;;;;;;;9.40;4.78;;;22.80;1.00;;;;;;5032161;28;20515;-52
2022/08/04 01:52:41;;;;;;;9.70;4.60;;;22.80;1.00;;;;;;5051692;28;20467;-51
2022/08/04 01:55:09;;;;;;;10.27;5.07;;;22.80;1.00;;;;;;5051269;28;20397;-52
2022/08/04 01:57:41;;;;;;;10.85;5.05;;;22.80;1.00;;;;;;5031436;28;21031;-51
2022/08/04 02:00:07;;;;;;;9.60;4.80;;;22.80;1.00;;;;;;5040151;28;20401;-51
2022/08/04 02:02:33;;;;;;;9.10;4.80;;;22.70;1.00;;;;;;5050735;28;20386;-51
2022/08/04 02:04:59;;;;;;;9.27;4.30;;;22.50;1.00;;;;;;5050976;28;20467;-52
2022/08/04 02:07:37;;;;;;;9.88;4.65;;;22.50;1.00;;;;;;5050360;28;20385;-53
2022/08/04 02:10:05;;;;;;;15.27;5.10;;;22.30;1.00;;;;;;5051178;28;20446;-52
2022/08/04 02:12:34;;;;;;;11.95;5.05;;;22.30;1.00;;;;;;5032544;28;20827;-53
2022/08/04 02:15:22;;;;;;;10.80;4.78;;;22.30;1.00;;;;;;5051423;28;20863;-54
2022/08/04 02:18:06;;;;;;;8.90;4.40;;;22.40;1.00;;;;;;5051352;28;20388;-55
2022/08/04 02:20:34;;;;;;;9.00;4.70;;;22.40;1.00;;;;;;5050638;28;20401;-56
2022/08/04 02:23:09;;;;;;;8.68;4.20;;;22.40;1.00;;;;;;5051005;28;20393;-54
2022/08/04 02:26:02;;;;;;;9.07;4.90;;;22.30;1.00;;;;;;5050232;28;20401;-54
2022/08/04 02:28:43;;;;;;;10.20;4.60;;;23.20;1.00;;;;;;5041127;28;20933;-54
2022/08/04 02:31:26;;;;;;;9.50;4.57;;;22.30;1.00;;;;;;5031069;28;20466;-54
2022/08/04 02:34:00;;;;;;;11.90;4.97;;;22.30;1.00;;;;;;5043292;28;20409;-54
2022/08/04 02:36:33;;;;;;;10.25;5.10;;;22.40;1.00;;;;;;5049850;28;20392;-51
2022/08/04 02:39:02;;;;;;;11.55;5.40;;;22.30;1.00;;;;;;5050481;28;20456;-51
2022/08/04 02:41:29;;;;;;;9.75;4.70;;;22.20;1.00;;;;;;5049779;28;20484;-51
2022/08/04 02:44:01;;;;;;;9.68;5.28;;;22.30;1.00;;;;;;5050659;28;20391;-51
2022/08/04 02:46:28;;;;;;;9.80;4.80;;;22.20;1.00;;;;;;5049716;28;20400;-54
2022/08/04 02:48:55;;;;;;;8.60;4.50;;;22.20;1.00;;;;;;5050777;28;20396;-54
2022/08/04 02:51:30;;;;;;;13.27;5.10;;;22.20;1.00;;;;;;5049903;28;20397;-51
2022/08/04 02:53:57;;;;;;;10.25;4.50;;;22.20;1.00;;;;;;5050834;28;20867;-52
2022/08/04 02:56:27;;;;;;;12.48;4.85;;;22.20;1.00;;;;;;5048419;28;20405;-51
2022/08/04 02:59:03;;;;;;;9.75;5.28;;;22.10;1.00;;;;;;5050383;28;20393;-51
2022/08/04 03:01:29;;;;;;;9.50;4.72;;;22.10;1.00;;;;;;5049480;28;20386;-51
2022/08/04 03:04:28;;;;;;;8.40;4.63;;;22.00;99.90;;;;;;5050121;28;20417;-51
2022/08/04 03:07:15;;;;;;;8.43;4.75;;;22.00;67.70;;;;;;5050745;28;20477;-51
2022/08/04 03:09:55;;;;;;;11.38;5.40;;;22.00;58.00;;;;;;5032205;28;20423;-52
2022/08/04 03:12:38;;;;;;;9.25;4.80;;;22.00;51.50;;;;;;5049929;28;20920;-51
2022/08/04 03:15:22;;;;;;;9.80;4.40;;;22.00;42.90;;;;;;5050185;28;20410;-52
2022/08/04 03:18:15;;;;;;;10.60;5.10;;;22.00;20.50;;;;;;5049369;28;20754;-51
2022/08/04 03:20:59;;;;;;;9.15;5.15;;;22.10;18.10;;;;;;5050346;28;20373;-51
2022/08/04 03:23:58;;;;;;;9.17;4.83;;;22.00;1.00;;;;;;5049681;28;20432;-52
2022/08/04 03:26:42;;;;;;;9.70;5.00;;;21.90;28.00;;;;;;5048476;28;20424;-52
2022/08/04 03:29:42;;;;;;;9.50;4.40;;;21.90;30.60;;;;;;5049878;28;20588;-52
2022/08/04 03:32:07;;;;;;;9.18;4.70;;;21.80;1.00;;;;;;5032181;28;20797;-51
2022/08/04 03:34:58;;;;;;;8.60;4.47;;;21.80;1.00;;;;;;5049137;28;20417;-51
2022/08/04 03:37:51;;;;;;;8.50;4.30;;;21.80;1.00;;;;;;5049525;28;20373;-52
2022/08/04 03:40:29;;;;;;;10.68;4.70;;;21.80;1.00;;;;;;5029183;28;20481;-52
2022/08/04 03:42:57;;;;;;;9.48;4.90;;;21.80;1.00;;;;;;5049458;28;20398;-52
2022/08/04 03:45:40;;;;;;;10.17;4.50;;;21.70;1.00;;;;;;5049462;28;20451;-51
2022/08/04 03:48:44;;;;;;;10.68;4.47;;;21.70;4.60;;;;;;5041952;28;20399;-51
2022/08/04 03:54:44;;;;;;;9.85;4.53;;;21.70;25.10;;;;;;5005823;28;20833;-51
2022/08/04 03:57:46;;;;;;;9.27;4.60;;;21.70;52.20;;;;;;5049014;28;20394;-53
2022/08/04 04:00:16;;;;;;;10.50;4.55;;;21.70;47.80;;;;;;5049255;28;20397;-52
2022/08/04 04:03:01;;;;;;;10.52;4.50;;;21.70;67.20;;;;;;5048035;28;20467;-51
2022/08/04 04:05:39;;;;;;;9.82;4.38;;;21.80;48.80;;;;;;5048171;28;20433;-51
2022/08/04 04:08:44;;;;;;;10.77;4.88;;;21.80;43.40;;;;;;5048977;28;20389;-51
2022/08/04 04:11:27;;;;;;;10.20;4.57;;;21.80;27.00;;;;;;5051173;28;20385;-52
2022/08/04 04:14:02;;;;;;;10.00;4.85;;;21.90;1.00;;;;;;5049811;28;20849;-53
2022/08/04 04:16:33;;;;;;;10.77;4.60;;;22.00;1.00;;;;;;5052594;28;20392;-51
2022/08/04 04:19:23;;;;;;;10.37;5.10;;;22.00;1.00;;;;;;5051969;28;20488;-52
2022/08/04 04:22:22;;;;;;;10.50;4.60;;;22.00;1.00;;;;;;5051295;28;20436;-53
2022/08/04 04:25:20;;;;;;;9.05;4.80;;;22.10;1.00;;;;;;5051547;28;20432;-53
2022/08/04 04:27:55;;;;;;;11.20;4.60;;;22.00;1.00;;;;;;5052551;28;20452;-52
2022/08/04 04:30:35;;;;;;;9.93;4.90;;;22.00;1.00;;;;;;5052251;28;20465;-56
2022/08/04 04:33:18;;;;;;;11.07;4.90;;;22.00;1.00;;;;;;5052329;28;20869;-54
2022/08/04 04:36:02;;;;;;;9.10;5.00;;;22.00;1.00;;;;;;5051509;28;20458;-54
2022/08/04 04:38:44;;;;;;;9.00;4.95;;;21.90;12.50;;;;;;5052015;28;20598;-54
2022/08/04 04:41:23;;;;;;;10.05;4.43;;;22.00;16.50;;;;;;5052618;28;20430;-54
2022/08/04 04:44:33;;;;;;;11.55;5.50;;;22.00;26.80;;;;;;5052917;28;20408;-54
2022/08/04 04:47:03;;;;;;;9.88;4.93;;;22.00;13.10;;;;;;5052473;28;20397;-54
2022/08/04 04:49:58;;;;;;;11.00;4.63;;;22.10;1.00;;;;;;5052204;28;20374;-54
2022/08/04 04:52:39;;;;;;;11.93;4.60;;;22.20;1.00;;;;;;5051910;28;20373;-54
2022/08/04 04:55:19;;;;;;;10.80;5.10;;;22.20;1.00;;;;;;5052564;28;20548;-54
2022/08/04 04:57:50;;;;;;;11.18;5.00;;;22.30;1.00;;;;;;5052395;28;20416;-54
2022/08/04 05:00:16;;;;;;;8.85;4.10;;;22.50;1.00;;;;;;5050977;28;20389;-55
2022/08/04 05:03:02;;;;;;;9.35;4.28;;;22.80;1.00;;;;;;5052366;28;20397;-55
2022/08/04 05:05:47;;;;;;;11.10;4.45;;;23.20;1.00;;;;;;5051582;28;20457;-55
2022/08/04 05:08:36;;;;;;;9.52;4.40;;;24.30;1.00;;;;;;5052210;28;20402;-55
2022/08/04 05:11:14;;;;;;;8.38;4.43;;;25.60;99.90;;;;;;5052017;28;20394;-54
2022/08/04 05:13:46;;;;;;;9.60;4.40;;;26.70;99.90;;;;;;5051757;28;20463;-55
2022/08/04 05:16:12;;;;;;;11.83;4.50;;;27.60;99.90;;;;;;5052068;28;20481;-55
2022/08/04 05:18:40;;;;;;;8.80;4.47;;;28.40;99.90;;;;;;5050383;28;20517;-55
2022/08/04 05:21:43;;;;;;;10.63;3.70;;;29.00;99.90;;;;;;5051342;28;20483;-55
2022/08/04 05:24:12;;;;;;;8.30;4.05;;;29.60;99.90;;;;;;4992528;28;20414;-55
2022/08/04 05:26:45;;;;;;;10.52;4.80;;;30.50;99.90;;;;;;5045822;28;20590;-55
2022/08/04 05:29:33;;;;;;;9.13;3.72;;;30.80;99.90;;;;;;5052066;28;20410;-55
2022/08/04 05:32:03;;;;;;;7.57;3.35;;;31.10;99.90;;;;;;5050243;28;20971;-55
2022/08/04 05:34:34;;;;;;;7.50;4.00;;;31.50;99.90;;;;;;5050943;28;20409;-55
2022/08/04 05:37:06;;;;;;;8.30;4.50;;;31.60;99.90;;;;;;5035961;28;20466;-56
2022/08/04 05:39:44;;;;;;;8.80;4.15;;;32.20;99.90;;;;;;5035213;28;20381;-55
2022/08/04 05:42:11;;;;;;;7.97;4.00;;;;;;;;;;5052174;28;20378;-55
2022/08/04 05:44:39;;;;;;;8.15;3.92;;;32.90;99.90;;;;;;5050755;28;20377;-56
2022/08/04 05:47:06;;;;;;;9.02;4.90;;;33.50;99.90;;;;;;5051846;28;20434;-55
2022/08/04 05:49:33;;;;;;;7.85;4.75;;;33.90;99.90;;;;;;5051175;28;20377;-56
2022/08/04 05:52:01;;;;;;;10.15;4.70;;;33.90;99.90;;;;;;5050767;28;20743;-56
2022/08/04 05:54:29;;;;;;;10.02;4.75;;;34.40;99.90;;;;;;5050409;28;20459;-56
2022/08/04 05:56:57;;;;;;;10.07;5.00;;;35.10;99.90;;;;;;5051170;28;20421;-56
2022/08/04 05:59:27;;;;;;;11.00;4.90;;;35.30;99.90;;;;;;5051080;28;20432;-56
2022/08/04 06:01:55;;;;;;;9.10;5.80;;;;;;;;;;5050576;28;20393;-56
2022/08/04 06:04:26;;;;;;;8.02;5.60;;;36.30;99.90;;;;;;5046376;28;20409;-57
2022/08/04 06:06:53;;;;;;;12.07;5.18;;;36.40;99.90;;;;;;5048688;28;20398;-56
2022/08/04 06:09:19;;;;;;;9.40;5.90;;;36.40;99.90;;;;;;5050556;28;20405;-59
2022/08/04 06:11:47;;;;;;;10.40;6.07;;;36.80;99.90;;;;;;5051227;28;20850;-55
2022/08/04 06:14:14;;;;;;;8.97;6.00;;;37.10;99.90;;;;;;5051520;28;20415;-56
2022/08/04 06:16:42;;;;;;;10.20;5.70;;;37.20;99.90;;;;;;5050854;28;20412;-56
2022/08/04 06:19:12;;;;;;;8.85;6.18;;;37.30;99.90;;;;;;5051096;28;20477;-56
2022/08/04 06:21:44;;;;;;;9.45;5.40;;;37.60;99.90;;;;;;5050652;28;20472;-56
2022/08/04 06:24:14;;;;;;;9.60;5.50;;;37.80;99.90;;;;;;5050241;28;20485;-56
2022/08/04 06:26:41;;;;;;;8.77;5.95;;;37.60;99.90;;;;;;5050151;28;20464;-56
2022/08/04 06:29:16;;;;;;;8.73;5.22;;;37.30;99.90;;;;;;5050781;28;20413;-56
2022/08/04 06:31:45;;;;;;;8.70;5.78;;;37.50;99.90;;;;;;5049239;28;20421;-56
2022/08/04 06:34:14;;;;;;;9.35;3.00;;;38.10;99.90;;;;;;5049806;28;20413;-56
2022/08/04 06:36:42;;;;;;;7.63;3.65;;;37.90;99.90;;;;;;5048776;28;20430;-56
2022/08/04 06:39:10;;;;;;;7.82;2.92;;;37.40;99.90;;;;;;5050928;28;20382;-56
2022/08/04 06:41:36;;;;;;;7.90;3.40;;;36.60;99.90;;;;;;5050249;28;20923;-56
2022/08/04 06:44:06;;;;;;;8.30;3.10;;;37.20;99.90;;;;;;5051379;28;20377;-56
2022/08/04 06:46:34;;;;;;;9.27;4.63;;;38.00;99.90;;;;;;5049869;28;20386;-56
2022/08/04 06:49:00;;;;;;;7.97;5.63;;;38.60;99.90;;;;;;5050943;28;20889;-56
2022/08/04 06:51:29;;;;;;;7.30;3.53;;;39.00;99.90;;;;;;5049601;28;20381;-56
2022/08/04 06:53:55;;;;;;;8.23;3.58;;;40.00;99.90;;;;;;5050320;28;20401;-57
2022/08/04 06:56:23;;;;;;;7.93;3.20;;;40.20;99.90;;;;;;5049870;28;20460;-57
2022/08/04 06:58:50;;;;;;;7.25;3.35;;;40.20;99.90;;;;;;5050606;28;20382;-56
2022/08/04 07:01:18;;;;;;;9.60;3.92;;;39.90;99.90;;;;;;5050309;28;20378;-56
2022/08/04 07:03:44;;;;;;;9.50;3.20;;;39.80;99.90;;;;;;5050313;28;20381;-56
2022/08/04 07:06:11;;;;;;;8.23;3.03;;;40.30;99.90;;;;;;5049913;28;20412;-57
2022/08/04 07:08:36;;;;;;;8.43;4.03;;;40.40;99.90;;;;;;5049278;28;20374;-56
2022/08/04 07:11:04;;;;;;;8.43;3.90;;;41.10;99.90;;;;;;5050513;28;20378;-57
2022/08/04 07:13:30;;;;;;;8.80;4.82;;;41.80;99.90;;;;;;5049281;28;20409;-61
2022/08/04 07:15:58;;;;;;;8.35;6.88;;;41.80;99.90;;;;;;5049929;28;20920;-57
2022/08/04 07:18:24;;;;;;;8.90;6.40;;;42.30;99.90;;;;;;5049213;28;20490;-57
2022/08/04 07:20:50;;;;;;;9.13;6.93;;;41.80;99.90;;;;;;5049523;28;20432;-57
2022/08/04 07:23:24;;;;;;;9.00;6.30;;;41.50;99.90;;;;;;5050039;28;20381;-56
2022/08/04 07:25:51;;;;;;;8.85;5.75;;;41.10;99.90;;;;;;5050165;28;20393;-56
2022/08/04 07:28:18;;;;;;;10.20;6.57;;;41.00;99.90;;;;;;5049671;28;20405;-61
2022/08/04 07:30:47;;;;;;;8.32;5.15;;;41.10;99.90;;;;;;5049723;28;20373;-56
2022/08/04 07:33:17;;;;;;;8.57;5.30;;;42.30;1.00;;;;;;5049529;28;20473;-57
2022/08/04 07:35:48;;;;;;;8.32;5.70;;;42.90;1.00;;;;;;5048897;28;20518;-57
2022/08/04 07:38:14;;;;;;;11.50;6.17;;;43.10;99.90;;;;;;5050076;28;20377;-56
2022/08/04 07:40:40;;;;;;;10.10;5.25;;;43.20;99.90;;;;;;5049136;28;20396;-56
2022/08/04 07:43:07;;;;;;;9.73;5.90;;;42.70;99.90;;;;;;5049337;28;20478;-57
2022/08/04 07:45:33;;;;;;;8.40;5.57;;;42.10;99.90;;;;;;5048761;28;20478;-58
2022/08/04 07:47:59;;;;;;;8.50;6.57;;;42.30;99.90;;;;;;5049848;28;20381;-57
2022/08/04 07:50:26;;;;;;;10.25;6.15;;;42.20;99.90;;;;;;5050118;28;20384;-57
2022/08/04 07:52:52;;;;;;;8.15;6.40;;;42.30;99.90;;;;;;5049137;28;20404;-57
2022/08/04 07:55:19;;;;;;;7.60;5.20;;;42.40;99.90;;;;;;5031182;28;20407;-60
2022/08/04 07:57:45;;;;;;;10.10;5.80;;;43.10;99.90;;;;;;5049287;28;20494;-57
2022/08/04 08:00:13;;;;;;;9.85;8.85;;;44.00;99.90;;;;;;5050016;28;20481;-57
2022/08/04 08:02:44;;;;;;;9.57;8.68;;;44.20;99.90;;;;;;5048737;28;20805;-57
2022/08/04 08:05:13;;;;;;;8.90;6.00;;;43.70;99.90;;;;;;5049715;28;20431;-57
2022/08/04 08:07:38;;;;;;;7.55;3.80;;;44.00;99.90;;;;;;5048581;28;20389;-57
2022/08/04 08:10:10;;;;;;;7.65;5.40;;;44.20;99.90;;;;;;5049486;28;20389;-57
2022/08/04 08:12:37;;;;;;;11.40;8.73;;;44.50;99.90;;;;;;5048756;28;20380;-57
2022/08/04 08:15:05;;;;;;;8.20;5.47;;;44.70;99.90;;;;;;5049448;28;20396;-57
2022/08/04 08:17:31;;;;;;;9.95;2.92;;;45.20;99.90;;;;;;5048633;28;20409;-57
2022/08/04 08:19:56;;;;;;;6.93;3.03;;;44.60;99.90;;;;;;5049815;28;20407;-57
2022/08/04 08:22:22;;;;;;;7.43;3.10;;;45.20;99.90;;;;;;5048227;28;20438;-60
2022/08/04 08:24:48;;;;;;;6.65;2.90;;;45.10;99.90;;;;;;5049007;28;20439;-57
2022/08/04 08:27:14;;;;;;;7.30;5.40;;;44.90;99.90;;;;;;5049581;28;20409;-58
2022/08/04 08:29:40;;;;;;;5.93;2.65;;;46.10;99.90;;;;;;5048970;28;20381;-57
2022/08/04 08:32:11;;;;;;;8.63;3.30;;;46.50;99.90;;;;;;5049765;28;20392;-57
2022/08/04 08:34:38;;;;;;;8.30;3.50;;;46.40;99.90;;;;;;5049083;28;20492;-58
2022/08/04 08:37:13;;;;;;;9.10;3.40;;;46.10;99.90;;;;;;5049290;28;20731;-58
2022/08/04 08:39:41;;;;;;;7.07;4.10;;;45.70;99.90;;;;;;5048945;28;21035;-58
2022/08/04 08:42:19;;;;;;;7.93;3.90;;;44.80;99.90;;;;;;5049125;28;21005;-57
2022/08/04 08:45:19;;;;;;;7.50;3.70;;;45.60;99.90;;;;;;5048968;28;20724;-57
2022/08/04 08:48:22;;;;;;;8.73;3.83;;;45.50;99.90;;;;;;5049530;28;20741;-58
2022/08/04 08:51:23;;;;;;;7.20;3.70;;;46.00;99.90;;;;;;5049491;28;20378;-58
2022/08/04 08:54:16;;;;;;;7.72;3.80;;;46.20;99.90;;;;;;5032799;28;20406;-58
2022/08/04 08:56:52;;;;;;;7.82;4.00;;;46.50;99.90;;;;;;5051910;28;20406;-57
2022/08/04 08:59:55;;;;;;;7.50;3.20;;;46.40;99.90;;;;;;5053323;28;20392;-61
2022/08/04 09:02:42;;;;;;;7.53;4.05;;;46.10;99.90;;;;;;5052540;28;20378;-57
2022/08/04 09:05:28;;;;;;;7.97;3.80;;;45.20;99.90;;;;;;5053001;28;20432;-57
2022/08/04 09:08:07;;;;;;;9.40;3.20;;;45.80;99.90;;;;;;5051140;28;20482;-58
2022/08/04 09:10:50;;;;;;;8.00;4.00;;;46.10;99.90;;;;;;5052021;28;20472;-57
2022/08/04 09:13:44;;;;;;;7.93;5.73;;;46.30;99.90;;;;;;5052425;28;20405;-57
2022/08/04 09:16:34;;;;;;;10.65;3.55;;;46.10;99.90;;;;;;5052516;28;20392;-57
2022/08/04 09:19:48;;;;;;;7.05;3.00;;;46.80;99.90;;;;;;5052996;28;20460;-57
2022/08/04 09:22:37;;;;;;;8.20;3.17;;;47.30;99.90;;;;;;5052553;28;20393;-58
2022/08/04 09:25:27;;;;;;;6.63;3.38;;;47.00;99.90;;;;;;5052198;28;20370;-58
2022/08/04 09:27:56;;;;;;;6.68;3.25;;;47.70;99.90;;;;;;5052769;28;20412;-58
2022/08/04 09:30:38;;;;;;;8.00;3.20;;;47.70;99.90;;;;;;5051279;28;20899;-58
2022/08/04 09:33:16;;;;;;;7.60;3.30;;;47.70;99.90;;;;;;5051886;28;20425;-58
2022/08/04 09:36:02;;;;;;;6.85;3.00;;;48.20;99.90;;;;;;5051406;28;20394;-58
2022/08/04 09:38:56;;;;;;;6.68;3.70;;;47.50;99.90;;;;;;5051460;28;20385;-58
2022/08/04 09:42:06;;;;;;;8.50;3.60;;;47.50;99.90;;;;;;5051219;28;20385;-58
2022/08/04 09:44:52;;;;;;;6.78;3.90;;;47.70;99.90;;;;;;5051250;28;20396;-58
2022/08/04 09:47:33;;;;;;;8.38;3.80;;;46.80;99.90;;;;;;5051931;28;20411;-57
2022/08/04 09:50:25;;;;;;;8.18;2.92;;;47.00;99.90;;;;;;5051926;28;20381;-57
2022/08/04 09:53:20;;;;;;;8.27;3.40;;;48.00;99.90;;;;;;5051750;28;20430;-58
2022/08/04 09:55:49;;;;;;;8.20;4.68;;;47.10;99.90;;;;;;5031754;28;21044;-57
2022/08/04 09:58:57;;;;;;;8.20;2.72;;;46.00;99.90;;;;;;5051371;28;20381;-58
2022/08/04 10:01:25;;;;;;;6.55;3.17;;;46.40;99.90;;;;;;5051106;28;20432;-62
2022/08/04 10:03:55;;;;;;;6.73;3.30;;;47.70;99.90;;;;;;5052013;28;20839;-57
2022/08/04 10:06:45;;;;;;;6.40;3.10;;;46.40;99.90;;;;;;5050764;28;20392;-61
2022/08/04 10:09:25;;;;;;;6.70;3.00;;;46.40;99.90;;;;;;5051265;28;20381;-58
2022/08/04 10:11:56;;;;;;;8.23;3.30;;;47.50;99.90;;;;;;5051746;28;20369;-58
2022/08/04 10:14:46;;;;;;;8.00;3.13;;;46.80;99.90;;;;;;5050365;28;20413;-61
2022/08/04 10:17:33;;;;;;;8.45;3.55;;;46.90;99.90;;;;;;5051262;28;20392;-57
2022/08/04 10:20:40;;;;;;;7.70;3.40;;;46.00;99.90;;;;;;5051072;28;20477;-57
2022/08/04 10:23:22;;;;;;;9.07;6.45;;;45.90;99.90;;;;;;5050533;28;20398;-58
2022/08/04 10:26:09;;;;;;;8.07;5.73;;;45.70;99.90;;;;;;5050921;28;20393;-58
2022/08/04 10:28:43;;;;;;;8.90;6.22;;;45.30;99.90;;;;;;5050500;28;20479;-57
2022/08/04 10:31:16;;;;;;;7.20;6.10;;;45.70;99.90;;;;;;5051018;28;20456;-57
2022/08/04 10:34:24;;;;;;;8.20;3.50;;;44.90;99.90;;;;;;5049840;28;20411;-58
2022/08/04 10:36:59;;;;;;;8.55;6.05;;;45.10;99.90;;;;;;4989188;28;20567;-57
2022/08/04 10:40:35;;;;;;;7.68;6.18;;;44.50;99.90;;;;;;5041525;28;20451;-57
2022/08/04 10:42:36;;;;;;;8.02;6.93;;;43.60;99.90;;;;;;5050370;28;20412;-57
2022/08/04 10:45:04;;;;;;;8.43;7.63;;;42.60;99.90;;;;;;5051120;28;20472;-57
2022/08/04 10:47:40;;;;;;;8.40;6.80;;;42.80;99.90;;;;;;5050107;28;20380;-57
2022/08/04 10:50:09;;;;;;;8.00;6.90;;;41.60;99.90;;;;;;5050459;28;20852;-57
2022/08/04 10:52:46;;;;;;;8.80;7.40;;;40.90;99.90;;;;;;5049547;28;20377;-57
2022/08/04 10:55:17;;;;;;;7.90;6.60;;;40.80;99.90;;;;;;5050349;28;20401;-57
2022/08/04 10:57:57;;;;;;;8.40;7.00;;;40.90;99.90;;;;;;5049696;28;20384;-57
2022/08/04 11:00:28;;;;;;;7.90;7.10;;;40.60;99.90;;;;;;5049994;28;20773;-57
2022/08/04 11:03:17;;;;;;;8.50;7.57;;;40.80;99.90;;;;;;5050625;28;20850;-57
2022/08/04 11:05:45;;;;;;;8.10;6.80;;;40.40;99.90;;;;;;5049382;28;20373;-57
2022/08/04 11:08:15;;;;;;;8.35;6.70;;;40.40;99.90;;;;;;5050302;28;20961;-57
2022/08/04 11:11:10;;;;;;;7.90;6.60;;;40.60;99.90;;;;;;5049862;28;21304;-57
2022/08/04 11:13:48;;;;;;;9.00;6.70;;;40.60;99.90;;;;;;4993449;28;20414;-59
2022/08/04 11:16:23;;;;;;;8.23;6.68;;;40.40;99.90;;;;;;5030141;28;20387;-57
2022/08/04 11:19:14;;;;;;;8.50;6.57;;;40.20;99.90;;;;;;5029898;28;20474;-57
2022/08/04 11:21:52;;;;;;;11.18;6.88;;;40.40;99.90;;;;;;5030289;28;20375;-57
2022/08/04 11:24:24;;;;;;;9.20;6.88;;;40.60;99.90;;;;;;5030558;28;20387;-55
2022/08/04 11:26:57;;;;;;;8.73;6.90;;;40.50;99.90;;;;;;5030207;28;20398;-57
2022/08/04 11:29:49;;;;;;;7.90;6.82;;;40.10;99.90;;;;;;5029606;28;20409;-60
2022/08/04 11:32:29;;;;;;;10.40;7.18;;;40.00;99.90;;;;;;5029959;28;20383;-57
2022/08/04 11:35:00;;;;;;;9.48;7.40;;;39.90;99.90;;;;;;5029975;28;20422;-57
2022/08/04 11:38:01;;;;;;;8.18;7.15;;;39.60;99.90;;;;;;5029053;28;20375;-58
2022/08/04 11:40:34;;;;;;;10.00;7.00;;;39.80;99.90;;;;;;5029454;28;20378;-57
2022/08/04 11:43:05;;;;;;;8.40;7.50;;;40.20;99.90;;;;;;5029913;28;20495;-58
2022/08/04 11:45:36;;;;;;;8.13;6.65;;;40.30;99.90;;;;;;5029879;28;20420;-57
2022/08/04 11:48:44;;;;;;;9.10;6.20;;;40.30;99.90;;;;;;5029961;28;20397;-57
2022/08/04 11:51:10;;;;;;;8.00;7.13;;;40.00;99.90;;;;;;5028880;28;20407;-57
2022/08/04 11:53:38;;;;;;;9.35;7.38;;;40.30;99.90;;;;;;5028308;28;20462;-57
2022/08/04 11:56:08;;;;;;;9.13;8.13;;;39.80;99.90;;;;;;5029464;28;20889;-57
2022/08/04 11:58:35;;;;;;;8.30;7.35;;;39.50;99.90;;;;;;5028712;28;20466;-57
2022/08/04 12:01:11;;;;;;;10.23;6.80;;;39.80;99.90;;;;;;5030080;28;20386;-57
2022/08/04 12:04:15;;;;;;;8.10;6.97;;;40.00;99.90;;;;;;5027698;28;20791;-57
2022/08/04 12:07:02;;;;;;;8.30;7.30;;;40.30;99.90;;;;;;4967276;28;20407;-58
2022/08/04 12:09:55;;;;;;;9.10;7.63;;;39.80;99.90;;;;;;5026034;28;20400;-57
2022/08/04 12:12:31;;;;;;;9.73;8.00;;;39.30;99.90;;;;;;5029350;28;20411;-57
2022/08/04 12:15:14;;;;;;;9.15;7.50;;;39.50;99.90;;;;;;5045478;28;20421;-57
2022/08/04 12:17:48;;;;;;;36.38;8.77;;;39.00;99.90;;;;;;5048840;28;20468;-57
2022/08/04 12:20:20;;;;;;;8.20;7.10;;;38.40;99.90;;;;;;5049137;28;20739;-57
2022/08/04 12:22:49;;;;;;;8.93;8.02;;;38.70;99.90;;;;;;5048891;28;20369;-57
2022/08/04 12:25:29;;;;;;;8.33;7.40;;;39.00;99.90;;;;;;5049330;28;20378;-57
2022/08/04 12:28:00;;;;;;;8.45;7.60;;;39.40;99.90;;;;;;5049222;28;20397;-57
2022/08/04 12:30:29;;;;;;;8.20;7.30;;;39.50;99.90;;;;;;5052621;28;20377;-60
2022/08/04 12:33:15;;;;;;;9.00;7.30;;;39.70;99.90;;;;;;5052951;28;20553;-57
2022/08/04 12:35:52;;;;;;;9.80;8.02;;;39.90;99.90;;;;;;5052551;28;20378;-57
2022/08/04 12:38:22;;;;;;;8.60;7.10;;;39.90;99.90;;;;;;5052894;28;20385;-57
2022/08/04 12:40:51;;;;;;;8.55;7.75;;;39.70;99.90;;;;;;5053304;28;20903;-57
2022/08/04 12:43:18;;;;;;;8.75;7.85;;;39.40;99.90;;;;;;5053132;28;20799;-57
2022/08/04 12:45:49;;;;;;;9.13;7.35;;;39.10;99.90;;;;;;5052611;28;20465;-57
2022/08/04 12:48:17;;;;;;;8.90;7.63;;;38.80;99.90;;;;;;5053288;28;20377;-57
2022/08/04 12:50:48;;;;;;;7.90;7.10;;;38.90;99.90;;;;;;5052203;28;20460;-57
2022/08/04 12:53:17;;;;;;;12.20;8.80;;;39.20;99.90;;;;;;5053246;28;20489;-57
2022/08/04 12:55:48;;;;;;;9.73;7.85;;;39.50;99.90;;;;;;5052310;28;20675;-57
2022/08/04 12:58:23;;;;;;;8.20;7.40;;;39.60;99.90;;;;;;5052767;28;20385;-57
2022/08/04 13:01:11;;;;;;;8.38;7.30;;;39.50;99.90;;;;;;5052219;28;20381;-58
2022/08/04 13:03:48;;;;;;;9.10;7.47;;;39.70;99.90;;;;;;5052542;28;20440;-57
2022/08/04 13:06:15;;;;;;;7.70;6.80;;;39.90;99.90;;;;;;5052224;28;20370;-57
2022/08/04 13:08:45;;;;;;;8.10;6.80;;;40.10;99.90;;;;;;5052035;28;20419;-57
2022/08/04 13:11:11;;;;;;;9.10;7.72;;;40.50;99.90;;;;;;5052562;28;20366;-57
2022/08/04 13:13:38;;;;;;;7.72;6.93;;;40.00;99.90;;;;;;5051335;28;20463;-57
2022/08/04 13:16:09;;;;;;;7.63;6.82;;;40.00;99.90;;;;;;5052644;28;20474;-57
2022/08/04 13:18:45;;;;;;;8.15;6.80;;;40.10;99.90;;;;;;5052053;28;20393;-57
2022/08/04 13:21:17;;;;;;;8.73;7.00;;;39.90;99.90;;;;;;5052276;28;20416;-57
2022/08/04 13:23:46;;;;;;;9.90;7.95;;;40.00;99.90;;;;;;5051929;28;20611;-57
2022/08/04 13:26:16;;;;;;;8.57;7.00;;;39.90;99.90;;;;;;5052486;28;20400;-57
2022/08/04 13:28:51;;;;;;;9.70;7.10;;;39.90;99.90;;;;;;5051098;28;20420;-56
2022/08/04 13:31:20;;;;;;;8.07;6.65;;;39.80;99.90;;;;;;5051930;28;20390;-58
2022/08/04 13:33:49;;;;;;;8.60;7.65;;;39.70;99.90;;;;;;5051852;28;20405;-57
2022/08/04 13:36:16;;;;;;;8.23;7.18;;;39.70;99.90;;;;;;5052158;28;20442;-57
2022/08/04 13:38:50;;;;;;;9.57;6.80;;;39.00;99.90;;;;;;5051317;28;20385;-57
2022/08/04 13:41:17;;;;;;;7.85;6.90;;;39.50;99.90;;;;;;5050818;28;20393;-58